Terminal Aerodrome Forecast
Issued by NWS Twin Cities, MN

Home | Current Version | Previous Version | Graphics & Text | Print | Product List | Glossary On
Versions: 1 2 3 4 5 6 7 8 9 10 11 12 13 14
000
FTUS43 KMPX 281736
TAFEAU
TAF
KEAU 281736Z 2818/2918 17016KT P6SM FEW025 BKN150
     FM290200 21012KT P6SM VCTS BKN040CB
     FM290300 25006KT P6SM SCT250
     FM291500 27013G19KT P6SM SKC=

USA.gov is the U.S. government's official web portal to all federal, state and local government web resources and services.